createdAt,value
2018-04-30T00:00:40.044Z,933.10
2018-04-30T00:01:39.991Z,933.11
2018-04-30T00:02:39.964Z,933.14
2018-04-30T00:03:39.917Z,933.09
2018-04-30T00:04:39.868Z,933.09
2018-04-30T00:05:39.831Z,933.09
2018-04-30T00:06:39.787Z,933.08
2018-04-30T00:07:39.770Z,933.11
2018-04-30T00:08:39.699Z,933.12
2018-04-30T00:09:39.670Z,933.13
2018-04-30T00:10:39.639Z,933.13
2018-04-30T00:11:39.555Z,933.15
2018-04-30T00:12:39.542Z,933.18
2018-04-30T00:13:39.492Z,933.21
2018-04-30T00:14:39.431Z,933.26
2018-04-30T00:15:39.376Z,933.28
2018-04-30T00:16:39.365Z,933.32
2018-04-30T00:17:39.305Z,933.32
2018-04-30T00:18:39.283Z,933.27
2018-04-30T00:19:39.208Z,933.30
2018-04-30T00:20:39.200Z,933.31
2018-04-30T00:21:39.142Z,933.32
2018-04-30T00:22:39.087Z,933.36
2018-04-30T00:23:39.029Z,933.35
2018-04-30T00:24:39.010Z,933.41
2018-04-30T00:25:38.963Z,933.42
2018-04-30T00:26:38.924Z,933.36
2018-04-30T00:27:38.905Z,933.44
2018-04-30T00:28:38.837Z,933.35
2018-04-30T00:29:38.799Z,933.35
2018-04-30T00:30:38.756Z,933.33
2018-04-30T00:31:38.697Z,933.30
2018-04-30T00:32:38.635Z,933.30
2018-04-30T00:33:38.701Z,933.29
2018-04-30T00:34:38.547Z,933.24
2018-04-30T00:35:38.525Z,933.24
2018-04-30T00:36:38.469Z,933.22
2018-04-30T00:37:38.442Z,933.20
2018-04-30T00:38:38.386Z,933.22
2018-04-30T00:39:38.354Z,933.21
2018-04-30T00:40:38.298Z,933.25
2018-04-30T00:41:38.269Z,933.19
2018-04-30T00:42:38.205Z,933.23
2018-04-30T00:43:38.179Z,933.17
2018-04-30T00:44:38.149Z,933.21
2018-04-30T00:45:38.086Z,933.16
2018-04-30T00:46:38.032Z,933.16
2018-04-30T00:47:38.030Z,933.17
2018-04-30T00:48:37.948Z,933.18
2018-04-30T00:49:37.919Z,933.17
2018-04-30T00:50:37.874Z,933.15
2018-04-30T00:51:37.835Z,933.15
2018-04-30T00:52:37.801Z,933.13
2018-04-30T00:53:37.762Z,933.18
2018-04-30T00:54:37.713Z,933.15
2018-04-30T00:55:37.652Z,933.21
2018-04-30T00:56:37.587Z,933.18
2018-04-30T00:57:37.546Z,933.17
2018-04-30T00:58:37.539Z,933.19
2018-04-30T00:59:37.501Z,933.19
2018-04-30T01:00:37.416Z,933.15
2018-04-30T01:01:37.412Z,933.13
2018-04-30T01:02:37.352Z,933.11
2018-04-30T01:03:37.312Z,933.14
2018-04-30T01:04:37.276Z,933.13
2018-04-30T01:05:37.230Z,933.12
2018-04-30T01:06:37.179Z,933.13
2018-04-30T01:07:37.119Z,933.11
2018-04-30T01:08:37.076Z,933.14
2018-04-30T01:09:37.024Z,933.07
2018-04-30T01:10:36.995Z,933.07
2018-04-30T01:11:36.956Z,933.05
2018-04-30T01:12:36.916Z,933.08
2018-04-30T01:13:36.864Z,933.08
2018-04-30T01:14:36.807Z,933.07
2018-04-30T01:15:36.784Z,933.08
2018-04-30T01:16:36.727Z,933.08
2018-04-30T01:17:36.713Z,933.06
2018-04-30T01:18:36.650Z,933.06
2018-04-30T01:19:36.607Z,933.06
2018-04-30T01:20:36.537Z,933.02
2018-04-30T01:21:36.492Z,933.07
2018-04-30T01:22:36.476Z,933.08
2018-04-30T01:23:36.422Z,933.08
2018-04-30T01:24:36.369Z,933.09
2018-04-30T01:25:36.331Z,933.06
2018-04-30T01:26:36.301Z,933.07
2018-04-30T01:27:36.238Z,933.04
2018-04-30T01:28:36.201Z,933.04
2018-04-30T01:29:36.158Z,933.02
2018-04-30T01:30:36.105Z,933.00
2018-04-30T01:31:36.070Z,933.03
2018-04-30T01:32:36.024Z,932.98
2018-04-30T01:33:35.982Z,933.02
2018-04-30T01:34:35.952Z,933.02
2018-04-30T01:35:35.888Z,933.05
2018-04-30T01:36:35.864Z,933.03
2018-04-30T01:37:35.833Z,933.07
2018-04-30T01:38:35.789Z,933.05
2018-04-30T01:39:35.711Z,933.06
2018-04-30T01:40:35.670Z,933.05
2018-04-30T01:41:35.641Z,933.05
2018-04-30T01:42:35.575Z,933.04
2018-04-30T01:43:35.545Z,933.04
2018-04-30T01:44:35.494Z,932.99
2018-04-30T01:45:35.458Z,932.99
2018-04-30T01:46:35.421Z,932.97
2018-04-30T01:47:35.385Z,932.98
2018-04-30T01:48:35.348Z,932.95
2018-04-30T01:49:35.308Z,933.00
2018-04-30T01:50:35.242Z,933.02
2018-04-30T01:51:35.222Z,933.04
2018-04-30T01:52:35.163Z,933.01
2018-04-30T01:53:35.108Z,932.98
2018-04-30T01:54:35.056Z,932.98
2018-04-30T01:55:35.019Z,932.98
2018-04-30T01:56:34.973Z,932.99
2018-04-30T01:57:34.922Z,932.96
2018-04-30T01:58:34.885Z,932.96
2018-04-30T01:59:34.840Z,932.97
2018-04-30T02:00:34.811Z,932.94
2018-04-30T02:01:34.762Z,932.96
2018-04-30T02:02:34.737Z,932.95
2018-04-30T02:03:34.668Z,933.00
2018-04-30T02:04:34.643Z,933.01
2018-04-30T02:05:34.580Z,933.02
2018-04-30T02:06:34.549Z,932.99
2018-04-30T02:07:34.477Z,932.97
2018-04-30T02:08:34.434Z,932.97
2018-04-30T02:09:34.430Z,932.98
2018-04-30T02:10:34.373Z,933.02
2018-04-30T02:11:34.313Z,932.97
2018-04-30T02:12:34.287Z,932.95
2018-04-30T02:13:34.211Z,932.94
2018-04-30T02:14:34.195Z,932.91
2018-04-30T02:15:34.170Z,932.90
2018-04-30T02:16:34.107Z,932.94
2018-04-30T02:17:34.068Z,932.86
2018-04-30T02:18:33.995Z,932.88
2018-04-30T02:19:33.971Z,932.89
2018-04-30T02:20:33.935Z,932.86
2018-04-30T02:21:33.896Z,932.86
2018-04-30T02:22:33.859Z,932.91
2018-04-30T02:23:33.789Z,932.93
2018-04-30T02:24:33.764Z,932.95
2018-04-30T02:25:33.697Z,932.91
2018-04-30T02:26:33.676Z,932.93
2018-04-30T02:27:33.613Z,932.95
2018-04-30T02:28:33.595Z,932.91
2018-04-30T02:29:33.539Z,932.95
2018-04-30T02:30:33.481Z,932.96
2018-04-30T02:31:33.484Z,932.96
2018-04-30T02:32:33.394Z,932.94
2018-04-30T02:33:33.432Z,932.95
2018-04-30T02:34:33.313Z,932.94
2018-04-30T02:35:33.276Z,932.90
2018-04-30T02:36:33.203Z,932.91
2018-04-30T02:37:33.160Z,932.90
2018-04-30T02:38:33.145Z,932.89
2018-04-30T02:39:33.072Z,932.88
2018-04-30T02:40:33.051Z,932.88
2018-04-30T02:41:33.011Z,932.88
2018-04-30T02:42:32.946Z,932.88
2018-04-30T02:43:32.906Z,932.90
2018-04-30T02:44:32.862Z,932.85
2018-04-30T02:45:32.835Z,932.86
2018-04-30T02:46:32.778Z,932.84
2018-04-30T02:47:32.738Z,932.85
2018-04-30T02:48:32.689Z,932.86
2018-04-30T02:49:32.633Z,932.87
2018-04-30T02:50:32.596Z,932.88
2018-04-30T02:51:32.564Z,932.90
2018-04-30T02:52:32.513Z,932.83
2018-04-30T02:53:32.482Z,932.80
2018-04-30T02:54:32.437Z,932.80
2018-04-30T02:55:32.386Z,932.79
2018-04-30T02:56:32.347Z,932.80
2018-04-30T02:57:32.310Z,932.77
2018-04-30T02:58:32.245Z,932.75
2018-04-30T02:59:32.223Z,932.84
2018-04-30T03:00:32.153Z,932.83
2018-04-30T03:01:32.122Z,932.84
2018-04-30T03:02:32.072Z,932.84
2018-04-30T03:03:32.056Z,932.82
2018-04-30T03:04:31.995Z,932.84
2018-04-30T03:05:31.924Z,932.84
2018-04-30T03:06:31.921Z,932.77
2018-04-30T03:07:31.857Z,932.80
2018-04-30T03:08:31.821Z,932.80
2018-04-30T03:09:31.768Z,932.79
2018-04-30T03:10:31.719Z,932.83
2018-04-30T03:11:31.679Z,932.85
2018-04-30T03:12:31.629Z,932.85
2018-04-30T03:13:31.588Z,932.87
2018-04-30T03:14:31.567Z,932.90
2018-04-30T03:15:31.512Z,932.88
2018-04-30T03:16:31.480Z,932.90
2018-04-30T03:17:31.407Z,932.89
2018-04-30T03:18:31.394Z,932.85
2018-04-30T03:19:31.310Z,932.88
2018-04-30T03:20:31.274Z,932.86
2018-04-30T03:21:31.232Z,932.82
2018-04-30T03:22:31.190Z,932.79
2018-04-30T03:23:31.149Z,932.81
2018-04-30T03:24:31.096Z,932.76
2018-04-30T03:25:31.058Z,932.79
2018-04-30T03:26:31.025Z,932.72
2018-04-30T03:27:30.994Z,932.73
2018-04-30T03:28:30.912Z,932.72
2018-04-30T03:29:30.897Z,932.70
2018-04-30T03:30:30.838Z,932.72
2018-04-30T03:31:30.793Z,932.68
2018-04-30T03:32:30.793Z,932.67
2018-04-30T03:33:30.735Z,932.65
2018-04-30T03:34:30.664Z,932.59
2018-04-30T03:35:30.628Z,932.63
2018-04-30T03:36:30.586Z,932.65
2018-04-30T03:37:30.513Z,932.59
2018-04-30T03:38:30.500Z,932.56
2018-04-30T03:39:30.450Z,932.65
2018-04-30T03:40:30.412Z,932.61
2018-04-30T03:41:30.377Z,932.59
2018-04-30T03:42:30.292Z,932.60
2018-04-30T03:43:30.266Z,932.58
2018-04-30T03:44:30.216Z,932.57
2018-04-30T03:45:30.160Z,932.61
2018-04-30T03:46:30.130Z,932.52
2018-04-30T03:47:30.103Z,932.51
2018-04-30T03:48:30.063Z,932.53
2018-04-30T03:49:29.990Z,932.49
2018-04-30T03:50:29.960Z,932.50
2018-04-30T03:51:29.913Z,932.44
2018-04-30T03:52:29.860Z,932.46
2018-04-30T03:53:29.834Z,932.43
2018-04-30T03:54:29.763Z,932.46
2018-04-30T03:55:29.758Z,932.43
2018-04-30T03:56:29.680Z,932.42
2018-04-30T03:57:29.627Z,932.41
2018-04-30T03:58:29.631Z,932.39
2018-04-30T03:59:29.567Z,932.44
2018-04-30T04:00:29.505Z,932.40
2018-04-30T04:01:29.479Z,932.39
2018-04-30T04:02:29.423Z,932.34
2018-04-30T04:03:29.375Z,932.34
2018-04-30T04:04:29.327Z,932.32
2018-04-30T04:05:29.304Z,932.35
2018-04-30T04:06:29.260Z,932.29
2018-04-30T04:07:29.215Z,932.26
2018-04-30T04:08:29.167Z,932.26
2018-04-30T04:09:29.122Z,932.22
2018-04-30T04:10:29.095Z,932.25
2018-04-30T04:11:29.032Z,932.26
2018-04-30T04:12:28.993Z,932.30
2018-04-30T04:13:28.955Z,932.30
2018-04-30T04:14:28.903Z,932.39
2018-04-30T04:15:28.848Z,932.35
2018-04-30T04:16:28.816Z,932.37
2018-04-30T04:17:28.759Z,932.34
2018-04-30T04:18:28.698Z,932.33
2018-04-30T04:19:28.685Z,932.36
2018-04-30T04:20:28.655Z,932.34
2018-04-30T04:21:28.597Z,932.29
2018-04-30T04:22:28.525Z,932.25
2018-04-30T04:23:28.525Z,932.32
2018-04-30T04:24:28.470Z,932.29
2018-04-30T04:25:28.392Z,932.29
2018-04-30T04:26:28.389Z,932.31
2018-04-30T04:27:28.311Z,932.30
2018-04-30T04:28:28.273Z,932.28
2018-04-30T04:29:28.251Z,932.31
2018-04-30T04:30:28.211Z,932.29
2018-04-30T04:31:28.153Z,932.30
2018-04-30T04:32:28.096Z,932.29
2018-04-30T04:33:28.082Z,932.31
2018-04-30T04:34:28.007Z,932.29
2018-04-30T04:35:27.976Z,932.33
2018-04-30T04:36:27.919Z,932.36
2018-04-30T04:37:27.900Z,932.33
2018-04-30T04:38:27.841Z,932.36
2018-04-30T04:39:27.785Z,932.38
2018-04-30T04:40:27.754Z,932.34
2018-04-30T04:41:27.722Z,932.34
2018-04-30T04:42:27.652Z,932.34
2018-04-30T04:43:27.633Z,932.33
2018-04-30T04:44:27.596Z,932.35
2018-04-30T04:45:27.511Z,932.34
2018-04-30T04:46:27.471Z,932.35
2018-04-30T04:47:27.459Z,932.34
2018-04-30T04:48:27.397Z,932.35
2018-04-30T04:49:27.342Z,932.39
2018-04-30T04:50:27.309Z,932.37
2018-04-30T04:51:27.265Z,932.40
2018-04-30T04:52:27.207Z,932.35
2018-04-30T04:53:27.165Z,932.36
2018-04-30T04:54:27.106Z,932.36
2018-04-30T04:55:27.079Z,932.35
2018-04-30T04:56:27.069Z,932.34
2018-04-30T04:57:26.994Z,932.35
2018-04-30T04:58:26.929Z,932.36
2018-04-30T04:59:26.882Z,932.39
2018-04-30T05:00:26.855Z,932.38
2018-04-30T05:01:26.821Z,932.37
2018-04-30T05:02:26.840Z,932.39
2018-04-30T05:03:26.741Z,932.39
2018-04-30T05:04:26.681Z,932.39
2018-04-30T05:05:26.633Z,932.35
2018-04-30T05:06:26.597Z,932.35
2018-04-30T05:07:26.554Z,932.32
2018-04-30T05:08:26.498Z,932.37
2018-04-30T05:09:26.456Z,932.32
2018-04-30T05:10:26.414Z,932.33
2018-04-30T05:11:26.361Z,932.35
2018-04-30T05:12:26.322Z,932.36
2018-04-30T05:13:26.297Z,932.35
2018-04-30T05:14:26.232Z,932.32
2018-04-30T05:15:26.218Z,932.33
2018-04-30T05:16:26.126Z,932.28
2018-04-30T05:17:26.079Z,932.31
2018-04-30T05:18:26.057Z,932.30
2018-04-30T05:19:26.023Z,932.32
2018-04-30T05:20:25.975Z,932.29
2018-04-30T05:21:25.907Z,932.24
2018-04-30T05:22:25.888Z,932.25
2018-04-30T05:23:25.857Z,932.24
2018-04-30T05:24:25.795Z,932.22
2018-04-30T05:25:25.747Z,932.26
2018-04-30T05:26:25.734Z,932.24
2018-04-30T05:27:25.654Z,932.24
2018-04-30T05:28:25.623Z,932.27
2018-04-30T05:29:25.551Z,932.26
2018-04-30T05:30:25.507Z,932.25
2018-04-30T05:31:25.493Z,932.25
2018-04-30T05:32:25.431Z,932.24
2018-04-30T05:33:25.380Z,932.22
2018-04-30T05:34:25.343Z,932.19
2018-04-30T05:35:25.285Z,932.19
2018-04-30T05:36:25.255Z,932.18
2018-04-30T05:37:25.196Z,932.16
2018-04-30T05:38:25.150Z,932.16
2018-04-30T05:39:25.143Z,932.13
2018-04-30T05:40:25.116Z,932.17
2018-04-30T05:41:25.055Z,932.11
2018-04-30T05:42:25.008Z,932.10
2018-04-30T05:43:24.966Z,932.11
2018-04-30T05:44:24.911Z,932.12
2018-04-30T05:45:24.856Z,932.14
2018-04-30T05:46:24.811Z,932.11
2018-04-30T05:47:24.779Z,932.13
2018-04-30T05:48:24.733Z,932.12
2018-04-30T05:49:24.663Z,932.09
2018-04-30T05:50:24.659Z,932.11
2018-04-30T05:51:24.596Z,932.10
2018-04-30T05:52:24.553Z,932.14
2018-04-30T05:53:24.500Z,932.08
2018-04-30T05:54:24.470Z,932.08
2018-04-30T05:55:24.410Z,932.13
2018-04-30T05:56:24.353Z,932.12
2018-04-30T05:57:24.327Z,932.05
2018-04-30T05:58:24.277Z,932.07
2018-04-30T05:59:24.229Z,932.07
2018-04-30T06:00:24.176Z,932.08
2018-04-30T06:01:24.131Z,932.05
2018-04-30T06:02:24.126Z,932.05
2018-04-30T06:03:24.069Z,932.07
2018-04-30T06:04:24.040Z,932.07
2018-04-30T06:05:23.987Z,932.09
2018-04-30T06:06:23.930Z,932.10
2018-04-30T06:07:23.907Z,932.12
2018-04-30T06:08:23.834Z,932.11
2018-04-30T06:09:23.802Z,932.08
2018-04-30T06:10:23.732Z,932.08
2018-04-30T06:11:23.684Z,932.07
2018-04-30T06:12:23.656Z,932.10
2018-04-30T06:13:23.644Z,932.04
2018-04-30T06:14:23.575Z,932.05
2018-04-30T06:15:23.533Z,932.02
2018-04-30T06:16:23.505Z,932.03
2018-04-30T06:17:23.529Z,932.07
2018-04-30T06:18:23.381Z,932.08
2018-04-30T06:19:23.370Z,932.03
2018-04-30T06:20:23.319Z,932.01
2018-04-30T06:21:23.282Z,932.00
2018-04-30T06:22:23.219Z,931.98
2018-04-30T06:23:23.178Z,931.97
2018-04-30T06:24:23.114Z,931.96
2018-04-30T06:25:23.079Z,931.98
2018-04-30T06:26:23.029Z,931.96
2018-04-30T06:27:22.974Z,931.91
2018-04-30T06:28:22.941Z,931.93
2018-04-30T06:29:22.902Z,931.96
2018-04-30T06:30:22.847Z,931.99
2018-04-30T06:31:22.808Z,931.94
2018-04-30T06:32:22.778Z,931.94
2018-04-30T06:33:22.733Z,931.92
2018-04-30T06:34:22.676Z,931.90
2018-04-30T06:35:22.658Z,931.88
2018-04-30T06:36:22.588Z,931.87
2018-04-30T06:37:22.543Z,931.90
2018-04-30T06:38:22.506Z,931.88
2018-04-30T06:39:22.454Z,931.88
2018-04-30T06:40:22.410Z,931.87
2018-04-30T06:41:22.385Z,931.85
2018-04-30T06:42:22.338Z,931.81
2018-04-30T06:43:22.293Z,931.88
2018-04-30T06:44:22.226Z,931.84
2018-04-30T06:45:22.172Z,931.84
2018-04-30T06:46:22.163Z,931.85
2018-04-30T06:47:22.124Z,931.83
2018-04-30T06:48:22.079Z,931.78
2018-04-30T06:49:22.007Z,931.79
2018-04-30T06:50:21.965Z,931.80
2018-04-30T06:51:21.920Z,931.78
2018-04-30T06:52:21.879Z,931.77
2018-04-30T06:53:21.853Z,931.82
2018-04-30T06:54:21.769Z,931.82
2018-04-30T06:55:21.733Z,931.85
2018-04-30T06:56:21.699Z,931.84
2018-04-30T06:57:21.668Z,931.79
2018-04-30T06:58:21.601Z,931.82
2018-04-30T06:59:21.564Z,931.82
2018-04-30T07:00:21.597Z,931.82
2018-04-30T07:01:21.461Z,931.80
2018-04-30T07:02:21.431Z,931.82
2018-04-30T07:03:21.381Z,931.79
2018-04-30T07:04:21.342Z,931.80
2018-04-30T07:05:21.305Z,931.84
2018-04-30T07:06:21.261Z,931.79
2018-04-30T07:07:21.207Z,931.76
2018-04-30T07:08:21.176Z,931.73
2018-04-30T07:09:21.194Z,931.72
2018-04-30T07:10:21.060Z,931.77
2018-04-30T07:11:21.036Z,931.78
2018-04-30T07:12:20.985Z,931.72
2018-04-30T07:13:20.924Z,931.72
2018-04-30T07:14:20.906Z,931.74
2018-04-30T07:15:20.855Z,931.73
2018-04-30T07:16:20.842Z,931.72
2018-04-30T07:17:20.753Z,931.73
2018-04-30T07:18:20.701Z,931.70
2018-04-30T07:19:20.664Z,931.74
2018-04-30T07:20:20.625Z,931.71
2018-04-30T07:21:20.581Z,931.70
2018-04-30T07:22:20.551Z,931.70
2018-04-30T07:23:20.505Z,931.67
2018-04-30T07:24:20.453Z,931.65
2018-04-30T07:25:20.389Z,931.60
2018-04-30T07:26:20.375Z,931.64
2018-04-30T07:27:20.320Z,931.71
2018-04-30T07:28:20.264Z,931.70
2018-04-30T07:29:20.222Z,931.70
2018-04-30T07:30:20.170Z,931.71
2018-04-30T07:31:20.120Z,931.70
2018-04-30T07:32:20.076Z,931.72
2018-04-30T07:33:20.045Z,931.69
2018-04-30T07:34:20.017Z,931.69
2018-04-30T07:35:19.960Z,931.67
2018-04-30T07:36:19.909Z,931.66
2018-04-30T07:37:19.861Z,931.72
2018-04-30T07:38:19.833Z,931.72
2018-04-30T07:39:19.774Z,931.70
2018-04-30T07:40:19.713Z,931.70
2018-04-30T07:41:19.700Z,931.64
2018-04-30T07:42:19.639Z,931.69
2018-04-30T07:43:19.604Z,931.69
2018-04-30T07:44:19.554Z,931.66
2018-04-30T07:45:19.519Z,931.62
2018-04-30T07:46:19.502Z,931.65
2018-04-30T07:47:19.440Z,931.61
2018-04-30T07:48:19.375Z,931.60
2018-04-30T07:49:19.420Z,931.59
2018-04-30T07:50:19.303Z,931.58
2018-04-30T07:51:19.254Z,931.61
2018-04-30T07:52:19.196Z,931.61
2018-04-30T07:53:19.151Z,931.64
2018-04-30T07:54:19.106Z,931.64
2018-04-30T07:55:19.047Z,931.67
2018-04-30T07:56:19.010Z,931.67
2018-04-30T07:57:19.002Z,931.68
2018-04-30T07:58:18.949Z,931.67
2018-04-30T07:59:18.895Z,931.69
2018-04-30T08:00:18.824Z,931.70
2018-04-30T08:01:18.794Z,931.73
2018-04-30T08:02:18.761Z,931.69
2018-04-30T08:03:18.706Z,931.71
2018-04-30T08:04:18.686Z,931.77
2018-04-30T08:05:18.601Z,931.78
2018-04-30T08:06:18.577Z,931.80
2018-04-30T08:07:18.540Z,931.82
2018-04-30T08:08:18.506Z,931.81
2018-04-30T08:09:18.451Z,931.79
2018-04-30T08:10:18.408Z,931.82
2018-04-30T08:11:18.331Z,931.79
2018-04-30T08:12:18.288Z,931.78
2018-04-30T08:13:18.282Z,931.76
2018-04-30T08:14:18.243Z,931.77
2018-04-30T08:15:18.176Z,931.87
2018-04-30T08:16:18.129Z,931.81
2018-04-30T08:17:18.064Z,931.82
2018-04-30T08:18:18.031Z,931.82
2018-04-30T08:19:17.989Z,931.83
2018-04-30T08:20:17.969Z,931.82
2018-04-30T08:21:17.917Z,931.82
2018-04-30T08:22:17.851Z,931.81
2018-04-30T08:23:17.802Z,931.84
2018-04-30T08:24:17.789Z,931.86
2018-04-30T08:25:17.744Z,931.87
2018-04-30T08:26:17.659Z,931.87
2018-04-30T08:27:17.615Z,931.87
2018-04-30T08:28:17.599Z,931.95
2018-04-30T08:29:17.572Z,931.89
2018-04-30T08:30:17.481Z,931.91
2018-04-30T08:31:17.461Z,931.92
2018-04-30T08:32:17.391Z,931.90
2018-04-30T08:33:17.358Z,931.87
2018-04-30T08:34:17.346Z,931.93
2018-04-30T08:35:17.270Z,931.94
2018-04-30T08:36:17.219Z,931.99
2018-04-30T08:37:17.189Z,932.00
2018-04-30T08:38:17.134Z,932.01
2018-04-30T08:39:17.105Z,932.07
2018-04-30T08:40:17.033Z,932.05
2018-04-30T08:41:16.992Z,932.11
2018-04-30T08:42:16.964Z,932.10
2018-04-30T08:43:16.917Z,932.08
2018-04-30T08:44:16.893Z,932.10
2018-04-30T08:45:16.834Z,932.13
2018-04-30T08:46:16.776Z,932.09
2018-04-30T08:47:16.755Z,932.06
2018-04-30T08:48:16.688Z,932.14
2018-04-30T08:49:16.636Z,932.09
2018-04-30T08:50:16.604Z,932.15
2018-04-30T08:51:16.540Z,932.13
2018-04-30T08:52:16.534Z,932.17
2018-04-30T08:53:16.457Z,932.13
2018-04-30T08:54:16.419Z,932.13
2018-04-30T08:55:16.361Z,932.12
2018-04-30T08:56:16.329Z,932.17
2018-04-30T08:57:16.269Z,932.16
2018-04-30T08:58:16.239Z,932.19
2018-04-30T08:59:16.191Z,932.17
2018-04-30T09:00:16.219Z,932.21
2018-04-30T09:01:16.110Z,932.17
2018-04-30T09:02:16.066Z,932.15
2018-04-30T09:03:16.013Z,932.16
2018-04-30T09:04:15.975Z,932.19
2018-04-30T09:05:15.952Z,932.28
2018-04-30T09:06:15.880Z,932.25
2018-04-30T09:07:15.816Z,932.27
2018-04-30T09:08:15.808Z,932.28
2018-04-30T09:09:15.752Z,932.27
2018-04-30T09:10:15.716Z,932.29
2018-04-30T09:11:15.656Z,932.32
2018-04-30T09:12:15.615Z,932.34
2018-04-30T09:13:15.592Z,932.35
2018-04-30T09:14:15.555Z,932.36
2018-04-30T09:15:15.475Z,932.40
2018-04-30T09:16:15.434Z,932.41
2018-04-30T09:17:15.387Z,932.39
2018-04-30T09:18:15.343Z,932.42
2018-04-30T09:19:15.302Z,932.39
2018-04-30T09:20:15.241Z,932.42
2018-04-30T09:21:15.207Z,932.47
2018-04-30T09:22:15.177Z,932.46
2018-04-30T09:23:15.119Z,932.45
2018-04-30T09:24:15.073Z,932.50
2018-04-30T09:25:15.037Z,932.47
2018-04-30T09:26:14.972Z,932.53
2018-04-30T09:27:14.960Z,932.55
2018-04-30T09:28:14.960Z,932.57
2018-04-30T09:29:14.839Z,932.57
2018-04-30T09:30:14.791Z,932.56
2018-04-30T09:31:14.753Z,932.61
2018-04-30T09:32:14.752Z,932.62
2018-04-30T09:33:14.690Z,932.60
2018-04-30T09:34:14.662Z,932.65
2018-04-30T09:35:14.586Z,932.67
2018-04-30T09:36:14.544Z,932.66
2018-04-30T09:37:14.504Z,932.72
2018-04-30T09:38:14.462Z,932.71
2018-04-30T09:39:14.394Z,932.70
2018-04-30T09:40:14.359Z,932.72
2018-04-30T09:41:14.334Z,932.77
2018-04-30T09:42:14.264Z,932.76
2018-04-30T09:43:14.248Z,932.74
2018-04-30T09:44:14.178Z,932.80
2018-04-30T09:45:14.127Z,932.79
2018-04-30T09:46:14.116Z,932.81
2018-04-30T09:47:14.026Z,932.79
2018-04-30T09:48:14.015Z,932.84
2018-04-30T09:49:14.006Z,932.89
2018-04-30T09:50:13.908Z,932.90
2018-04-30T09:51:13.864Z,932.89
2018-04-30T09:52:13.826Z,932.93
2018-04-30T09:53:13.772Z,932.94
2018-04-30T09:54:13.738Z,932.97
2018-04-30T09:55:13.687Z,932.93
2018-04-30T09:56:13.641Z,932.94
2018-04-30T09:57:13.625Z,932.97
2018-04-30T09:58:13.550Z,933.03
2018-04-30T09:59:13.526Z,933.01
2018-04-30T10:00:13.487Z,932.99
2018-04-30T10:01:13.404Z,933.03
2018-04-30T10:02:13.365Z,933.04
2018-04-30T10:03:13.341Z,933.04
2018-04-30T10:04:13.309Z,933.03
2018-04-30T10:05:13.238Z,933.05
2018-04-30T10:06:13.176Z,933.04
2018-04-30T10:07:13.155Z,933.06
2018-04-30T10:08:13.109Z,933.08
2018-04-30T10:09:13.061Z,933.08
2018-04-30T10:10:13.017Z,933.09
2018-04-30T10:11:12.981Z,933.11
2018-04-30T10:12:12.934Z,933.17
2018-04-30T10:13:12.883Z,933.14
2018-04-30T10:14:12.837Z,933.18
2018-04-30T10:15:12.801Z,933.20
2018-04-30T10:16:12.752Z,933.23
2018-04-30T10:17:12.701Z,933.28
2018-04-30T10:18:12.660Z,933.35
2018-04-30T10:19:12.615Z,933.40
2018-04-30T10:20:12.585Z,933.36
2018-04-30T10:21:12.553Z,933.35
2018-04-30T10:22:12.481Z,933.43
2018-04-30T10:23:12.439Z,933.38
2018-04-30T10:24:12.410Z,933.36
2018-04-30T10:25:12.352Z,933.41
2018-04-30T10:26:12.339Z,933.42
2018-04-30T10:27:12.274Z,933.38
2018-04-30T10:28:12.206Z,933.38
2018-04-30T10:29:12.193Z,933.36
2018-04-30T10:30:12.169Z,933.40
2018-04-30T10:31:12.104Z,933.44
2018-04-30T10:32:12.060Z,933.53
2018-04-30T10:33:12.100Z,933.59
2018-04-30T10:34:11.985Z,933.56
2018-04-30T10:35:11.943Z,933.75
2018-04-30T10:36:11.900Z,933.74
2018-04-30T10:37:11.818Z,933.86
2018-04-30T10:38:11.795Z,933.91
2018-04-30T10:39:11.742Z,933.97
2018-04-30T10:40:11.688Z,933.98
2018-04-30T10:41:11.669Z,934.04
2018-04-30T10:42:11.613Z,934.10
2018-04-30T10:43:11.608Z,934.09
2018-04-30T10:44:11.564Z,934.12
2018-04-30T10:45:11.506Z,934.24
2018-04-30T10:46:11.460Z,934.28
2018-04-30T10:47:11.447Z,934.34
2018-04-30T10:48:11.368Z,934.42
2018-04-30T10:49:11.371Z,934.38
2018-04-30T10:50:11.319Z,934.39
2018-04-30T10:51:11.267Z,934.45
2018-04-30T10:52:11.268Z,934.52
2018-04-30T10:53:11.203Z,934.58
2018-04-30T10:54:11.174Z,934.60
2018-04-30T10:55:11.150Z,934.61
2018-04-30T10:56:11.088Z,934.66
2018-04-30T10:57:11.092Z,934.55
2018-04-30T10:58:11.040Z,934.62
2018-04-30T10:59:10.994Z,934.69
2018-04-30T11:00:10.978Z,934.65
2018-04-30T11:01:10.916Z,934.72
2018-04-30T11:02:10.874Z,934.83
2018-04-30T11:03:10.849Z,934.57
2018-04-30T11:04:10.794Z,933.98
2018-04-30T11:05:10.780Z,933.80
2018-04-30T11:06:10.751Z,933.79
2018-04-30T11:07:10.710Z,933.73
2018-04-30T11:08:10.664Z,933.73
2018-04-30T11:09:10.638Z,933.76
2018-04-30T11:10:10.582Z,933.79
2018-04-30T11:11:10.568Z,933.76
2018-04-30T11:12:10.511Z,933.75
2018-04-30T11:13:10.459Z,933.81
2018-04-30T11:14:10.419Z,933.80
2018-04-30T11:15:10.403Z,933.85
2018-04-30T11:16:10.355Z,933.86
2018-04-30T11:17:10.316Z,933.88
2018-04-30T11:18:10.300Z,933.94
2018-04-30T11:19:10.262Z,933.92
2018-04-30T11:20:10.191Z,933.94
2018-04-30T11:21:10.156Z,933.96
2018-04-30T11:22:10.128Z,933.96
2018-04-30T11:23:10.082Z,933.99
2018-04-30T11:24:10.026Z,933.99
2018-04-30T11:25:10.005Z,934.00
2018-04-30T11:26:09.952Z,934.03
2018-04-30T11:27:09.923Z,934.04
2018-04-30T11:28:09.877Z,934.10
2018-04-30T11:29:09.823Z,934.06
2018-04-30T11:30:09.773Z,934.07
2018-04-30T11:31:09.760Z,934.10
2018-04-30T11:32:09.723Z,934.13
2018-04-30T11:33:09.663Z,934.11
2018-04-30T11:34:09.689Z,934.14
2018-04-30T11:35:09.605Z,934.12
2018-04-30T11:36:09.564Z,934.14
2018-04-30T11:37:09.494Z,934.13
2018-04-30T11:38:09.446Z,934.16
2018-04-30T11:39:09.406Z,934.12
2018-04-30T11:40:09.370Z,934.17
2018-04-30T11:41:09.328Z,934.17
2018-04-30T11:42:09.292Z,934.17
2018-04-30T11:43:09.259Z,934.20
2018-04-30T11:44:09.233Z,934.18
2018-04-30T11:45:09.167Z,934.19
2018-04-30T11:46:09.122Z,934.24
2018-04-30T11:47:09.115Z,934.24
2018-04-30T11:48:09.046Z,934.23
2018-04-30T11:49:08.992Z,934.24
2018-04-30T11:50:08.950Z,934.26
2018-04-30T11:51:08.904Z,934.24
2018-04-30T11:52:08.880Z,934.19
2018-04-30T11:53:08.827Z,934.18
2018-04-30T11:54:08.779Z,934.22
2018-04-30T11:55:08.734Z,934.21
2018-04-30T11:56:08.711Z,934.20
2018-04-30T11:57:08.647Z,934.19
2018-04-30T11:58:08.612Z,934.20
2018-04-30T11:59:08.576Z,934.20
2018-04-30T12:00:08.528Z,934.24
2018-04-30T12:01:08.498Z,934.22
2018-04-30T12:02:08.444Z,934.27
2018-04-30T12:03:08.389Z,934.24
2018-04-30T12:04:08.361Z,934.27
2018-04-30T12:05:08.333Z,934.30
2018-04-30T12:06:08.288Z,934.30
2018-04-30T12:07:08.261Z,934.33
2018-04-30T12:08:08.188Z,934.35
2018-04-30T12:09:08.148Z,934.32
2018-04-30T12:10:08.139Z,934.38
2018-04-30T12:11:08.152Z,934.32
2018-04-30T12:12:08.037Z,934.32
2018-04-30T12:13:07.975Z,934.30
2018-04-30T12:14:07.953Z,934.34
2018-04-30T12:15:07.898Z,934.36
2018-04-30T12:16:07.843Z,934.36
2018-04-30T12:17:07.813Z,934.36
2018-04-30T12:18:07.788Z,934.44
2018-04-30T12:19:07.758Z,934.45
2018-04-30T12:20:07.709Z,934.42
2018-04-30T12:21:07.638Z,934.44
2018-04-30T12:22:07.633Z,934.42
2018-04-30T12:23:07.580Z,934.45
2018-04-30T12:24:07.520Z,934.41
2018-04-30T12:25:07.465Z,934.46
2018-04-30T12:26:07.437Z,934.42
2018-04-30T12:27:07.389Z,934.42
2018-04-30T12:28:07.359Z,934.46